createdAt,value
2022-12-12T00:00:45.575Z,100932.13
2022-12-12T00:03:13.356Z,100929.59
2022-12-12T00:05:41.292Z,100932.19
2022-12-12T00:08:09.083Z,100935.69
2022-12-12T00:10:37.186Z,100943.50
2022-12-12T00:13:06.269Z,100937.41
2022-12-12T00:15:34.005Z,100946.09
2022-12-12T00:18:01.815Z,100937.50
2022-12-12T00:20:29.584Z,100946.09
2022-12-12T00:22:57.356Z,100948.63
2022-12-12T00:25:25.032Z,100946.94
2022-12-12T00:27:52.759Z,100946.94
2022-12-12T00:30:21.895Z,100949.47
2022-12-12T00:32:49.565Z,100948.75
2022-12-12T00:35:17.536Z,100944.34
2022-12-12T00:37:45.197Z,100946.19
2022-12-12T00:40:14.329Z,100946.16
2022-12-12T00:42:42.056Z,100943.50
2022-12-12T00:45:10.760Z,100935.78
2022-12-12T00:47:40.130Z,100947.84
2022-12-12T00:50:09.218Z,100946.09
2022-12-12T00:52:36.954Z,100940.91
2022-12-12T00:55:05.443Z,100942.66
2022-12-12T00:57:33.143Z,100943.50
2022-12-12T01:00:01.709Z,100951.28
2022-12-12T01:02:29.450Z,100948.75
2022-12-12T01:04:58.539Z,100948.69
2022-12-12T01:07:26.503Z,100956.50
2022-12-12T01:09:54.209Z,100959.16
2022-12-12T01:12:21.928Z,100958.31
2022-12-12T01:14:49.885Z,100961.78
2022-12-12T01:17:17.749Z,100956.59
2022-12-12T01:19:45.540Z,100953.97
2022-12-12T01:22:14.620Z,100953.97
2022-12-12T01:24:42.275Z,100964.34
2022-12-12T01:27:10.016Z,100968.72
2022-12-12T01:29:37.844Z,100973.06
2022-12-12T01:32:06.017Z,100977.38
2022-12-12T01:34:33.628Z,100978.25
2022-12-12T01:37:01.300Z,100974.78
2022-12-12T01:39:30.303Z,100974.00
2022-12-12T01:41:58.033Z,100976.53
2022-12-12T01:44:40.969Z,100979.94
2022-12-12T01:47:08.834Z,100980.88
2022-12-12T01:49:37.002Z,100981.72
2022-12-12T01:52:07.555Z,100984.31
2022-12-12T01:54:40.483Z,100985.16
2022-12-12T01:57:10.522Z,100985.19
2022-12-12T01:59:38.971Z,100982.69
2022-12-12T02:02:07.310Z,100989.50
2022-12-12T02:04:35.381Z,100981.69
2022-12-12T02:07:03.239Z,100984.31
2022-12-12T02:09:31.184Z,100990.34
2022-12-12T02:12:00.490Z,100983.47
2022-12-12T02:14:30.752Z,100982.56
2022-12-12T02:17:44.680Z,100987.78
2022-12-12T02:20:42.561Z,100987.91
2022-12-12T02:23:26.390Z,100984.50
2022-12-12T02:26:06.992Z,100987.91
2022-12-12T02:31:33.447Z,100987.91
2022-12-12T02:34:04.845Z,100981.84
2022-12-12T02:36:37.821Z,100978.34
2022-12-12T02:39:09.704Z,100977.50
2022-12-12T02:41:40.275Z,100984.44
2022-12-12T02:44:14.668Z,100979.19
2022-12-12T02:46:49.077Z,100993.88
2022-12-12T02:49:19.855Z,100993.09
2022-12-12T02:51:48.852Z,100988.81
2022-12-12T02:54:18.477Z,100995.91
2022-12-12T02:56:52.927Z,100991.53
2022-12-12T02:59:25.692Z,101000.19
2022-12-12T03:02:24.807Z,100995.91
2022-12-12T03:05:28.108Z,100995.91
2022-12-12T03:08:03.921Z,100991.59
2022-12-12T03:10:42.150Z,100993.41
2022-12-12T03:13:13.383Z,100997.59
2022-12-12T03:15:45.856Z,100992.38
2022-12-12T03:18:23.309Z,100995.00
2022-12-12T03:20:53.609Z,100991.53
2022-12-12T03:23:26.292Z,100993.22
2022-12-12T03:26:01.164Z,100991.53
2022-12-12T03:28:32.560Z,101001.81
2022-12-12T03:31:04.186Z,101000.03
2022-12-12T03:33:37.274Z,100996.59
2022-12-12T03:36:09.128Z,100994.00
2022-12-12T03:38:39.446Z,100994.91
2022-12-12T03:41:10.611Z,100995.75
2022-12-12T03:43:41.567Z,100982.81
2022-12-12T03:46:13.660Z,100989.72
2022-12-12T03:48:45.215Z,100988.88
2022-12-12T03:51:15.777Z,100994.06
2022-12-12T03:53:46.006Z,100988.88
2022-12-12T03:56:17.258Z,100996.72
2022-12-12T03:58:48.635Z,101007.00
2022-12-12T04:01:17.328Z,100993.22
2022-12-12T04:03:50.951Z,100997.50
2022-12-12T04:06:28.512Z,100984.50
2022-12-12T04:09:16.572Z,100995.00
2022-12-12T04:12:13.209Z,100995.00
2022-12-12T04:14:56.377Z,100995.00
2022-12-12T04:17:30.580Z,101002.00
2022-12-12T04:20:20.629Z,101003.69
2022-12-12T04:23:11.153Z,101013.31
2022-12-12T04:26:01.646Z,101009.00
2022-12-12T04:28:29.945Z,101012.50
2022-12-12T04:31:01.659Z,101013.31
2022-12-12T04:33:30.776Z,101011.63
2022-12-12T04:36:01.435Z,101015.91
2022-12-12T04:38:29.222Z,101015.06
2022-12-12T04:40:58.820Z,101016.81
2022-12-12T04:43:28.869Z,101014.22
2022-12-12T04:45:58.632Z,101016.81
2022-12-12T04:48:29.392Z,101014.31
2022-12-12T04:51:00.136Z,101022.13
2022-12-12T04:53:30.933Z,101014.22
2022-12-12T04:56:00.848Z,101026.31
2022-12-12T04:58:28.930Z,101029.81
2022-12-12T05:01:01.225Z,101017.66
2022-12-12T05:03:33.611Z,101028.00
2022-12-12T05:06:04.516Z,101028.09
2022-12-12T05:08:33.760Z,101036.56
2022-12-12T05:11:03.647Z,101035.72
2022-12-12T05:13:32.945Z,101033.13
2022-12-12T05:16:01.919Z,101027.06
2022-12-12T05:18:30.596Z,101033.13
2022-12-12T05:20:58.373Z,101033.09
2022-12-12T05:23:33.003Z,101032.19
2022-12-12T05:26:07.569Z,101034.78
2022-12-12T05:28:35.813Z,101037.47
2022-12-12T05:31:03.604Z,101036.56
2022-12-12T05:33:31.391Z,101032.19
2022-12-12T05:35:59.067Z,101032.25
2022-12-12T05:38:28.124Z,101035.72
2022-12-12T05:40:55.859Z,101036.56
2022-12-12T05:43:23.634Z,101046.97
2022-12-12T05:45:51.650Z,101036.56
2022-12-12T05:48:24.094Z,101042.69
2022-12-12T05:50:52.350Z,101044.38
2022-12-12T05:53:20.167Z,101035.72
2022-12-12T05:55:50.226Z,101043.53
2022-12-12T05:58:17.990Z,101041.00
2022-12-12T06:00:46.231Z,101052.22
2022-12-12T06:03:13.973Z,101055.69
2022-12-12T06:05:41.754Z,101050.47
2022-12-12T06:08:09.920Z,101055.69
2022-12-12T06:10:37.689Z,101058.28
2022-12-12T06:13:06.750Z,101046.13
2022-12-12T06:15:34.588Z,101049.56
2022-12-12T06:18:02.363Z,101047.88
2022-12-12T06:20:30.567Z,101046.19
2022-12-12T06:22:58.302Z,101040.94
2022-12-12T06:25:26.057Z,101047.88
2022-12-12T06:27:53.860Z,101040.31
2022-12-12T06:30:22.971Z,101053.06
2022-12-12T06:32:50.679Z,101049.69
2022-12-12T06:35:18.485Z,101048.78
2022-12-12T06:37:48.331Z,101048.78
2022-12-12T06:40:17.084Z,101059.19
2022-12-12T06:42:48.207Z,101054.88
2022-12-12T06:45:16.767Z,101063.59
2022-12-12T06:47:45.920Z,101061.84
2022-12-12T06:50:14.416Z,101060.19
2022-12-12T06:52:44.498Z,101068.78
2022-12-12T06:55:12.372Z,101066.19
2022-12-12T06:57:40.195Z,101061.09
2022-12-12T07:00:10.031Z,101069.69
2022-12-12T07:02:37.764Z,101074.84
2022-12-12T07:05:07.965Z,101064.38
2022-12-12T07:07:35.651Z,101071.38
2022-12-12T07:10:03.325Z,101073.06
2022-12-12T07:12:30.994Z,101071.38
2022-12-12T07:14:58.751Z,101072.22
2022-12-12T07:17:26.454Z,101073.06
2022-12-12T07:19:54.159Z,101077.47
2022-12-12T07:22:23.338Z,101082.63
2022-12-12T07:24:52.523Z,101073.06
2022-12-12T07:27:21.949Z,101076.59
2022-12-12T07:29:49.817Z,101075.72
2022-12-12T07:32:17.499Z,101083.59
2022-12-12T07:34:45.309Z,101070.06
2022-12-12T07:37:13.002Z,101083.59
2022-12-12T07:39:42.079Z,101080.09
2022-12-12T07:42:09.752Z,101081.91
2022-12-12T07:44:37.586Z,101080.09
2022-12-12T07:47:06.393Z,101084.44
2022-12-12T07:49:34.067Z,101087.88
2022-12-12T07:52:01.795Z,101081.84
2022-12-12T07:54:29.455Z,101081.78
2022-12-12T07:57:00.180Z,101083.53
2022-12-12T07:59:27.891Z,101091.31
2022-12-12T08:01:55.603Z,101096.53
2022-12-12T08:04:23.716Z,101099.91
2022-12-12T08:06:59.678Z,101100.75
2022-12-12T08:09:29.657Z,101101.59
2022-12-12T08:11:59.383Z,101105.03
2022-12-12T08:14:27.422Z,101109.41
2022-12-12T08:16:55.216Z,101107.66
2022-12-12T08:19:23.095Z,101111.06
2022-12-12T08:21:50.775Z,101116.28
2022-12-12T08:24:18.700Z,101102.63
2022-12-12T08:26:46.844Z,101108.47
2022-12-12T08:29:15.858Z,101107.50
2022-12-12T08:31:43.634Z,101110.16
2022-12-12T08:34:11.569Z,101111.88
2022-12-12T08:36:39.580Z,101118.75
2022-12-12T08:39:09.259Z,101120.47
2022-12-12T08:41:38.318Z,101125.66
2022-12-12T08:44:06.369Z,101118.75
2022-12-12T08:46:36.031Z,101122.09
2022-12-12T08:49:03.915Z,101122.94
2022-12-12T08:51:31.830Z,101127.28
2022-12-12T08:53:59.616Z,101126.38
2022-12-12T08:56:27.362Z,101122.84
2022-12-12T08:58:55.093Z,101117.66
2022-12-12T09:01:24.119Z,101125.41
2022-12-12T09:03:54.719Z,101120.16
2022-12-12T09:06:22.955Z,101126.25
2022-12-12T09:08:50.909Z,101123.56
2022-12-12T09:11:18.830Z,101126.16
2022-12-12T09:13:46.668Z,101127.88
2022-12-12T09:16:14.841Z,101126.06
2022-12-12T09:18:48.576Z,101125.16
2022-12-12T09:21:18.431Z,101125.09
2022-12-12T09:23:46.398Z,101121.69
2022-12-12T09:26:14.040Z,101122.34
2022-12-12T09:28:42.502Z,101130.09
2022-12-12T09:31:13.395Z,101129.13
2022-12-12T09:33:42.879Z,101123.94
2022-12-12T09:36:11.917Z,101129.03
2022-12-12T09:38:41.237Z,101133.28
2022-12-12T09:41:13.464Z,101125.41
2022-12-12T09:43:47.672Z,101128.84
2022-12-12T09:46:27.494Z,101132.88
2022-12-12T09:48:58.341Z,101131.84
2022-12-12T09:51:26.198Z,101123.97
2022-12-12T09:53:55.449Z,101128.19
2022-12-12T09:56:26.488Z,101122.88
2022-12-12T09:58:58.526Z,101125.47
2022-12-12T10:01:30.479Z,101121.19
2022-12-12T10:04:06.475Z,101127.22
2022-12-12T10:06:39.790Z,101127.28
2022-12-12T10:09:26.948Z,101125.47
2022-12-12T10:11:55.417Z,101135.09
2022-12-12T10:14:32.123Z,101135.88
2022-12-12T10:17:01.383Z,101132.50
2022-12-12T10:19:31.725Z,101136.72
2022-12-12T10:22:03.394Z,101135.84
2022-12-12T10:24:37.971Z,101133.28
2022-12-12T10:27:11.234Z,101135.03
2022-12-12T10:29:41.676Z,101135.09
2022-12-12T10:32:15.962Z,101133.28
2022-12-12T10:34:55.191Z,101129.81
2022-12-12T10:37:35.862Z,101121.19
2022-12-12T10:40:22.784Z,101121.31
2022-12-12T10:42:55.196Z,101128.00
2022-12-12T10:45:41.868Z,101127.03
2022-12-12T10:48:09.615Z,101126.19
2022-12-12T10:50:39.880Z,101117.47
2022-12-12T10:53:10.287Z,101132.22
2022-12-12T10:55:43.270Z,101131.31
2022-12-12T10:58:11.036Z,101122.56
2022-12-12T11:00:40.058Z,101122.56
2022-12-12T11:03:24.939Z,101120.56
2022-12-12T11:05:52.680Z,101121.50
2022-12-12T11:08:23.472Z,101116.34
2022-12-12T11:11:05.337Z,101127.44
2022-12-12T11:13:33.842Z,101123.94
2022-12-12T11:16:03.306Z,101120.22
2022-12-12T11:18:31.144Z,101122.69
2022-12-12T11:21:07.328Z,101119.09
2022-12-12T11:23:36.826Z,101121.69
2022-12-12T11:26:11.371Z,101116.56
2022-12-12T11:28:40.006Z,101125.28
2022-12-12T11:31:09.847Z,101123.72
2022-12-12T11:33:42.400Z,101125.41
2022-12-12T11:36:15.075Z,101114.88
2022-12-12T11:38:48.486Z,101115.69
2022-12-12T11:41:18.008Z,101102.56
2022-12-12T11:43:59.812Z,101107.63
2022-12-12T11:46:29.377Z,101109.47
2022-12-12T11:49:02.603Z,101099.03
2022-12-12T11:51:36.907Z,101099.03
2022-12-12T11:54:07.119Z,101087.09
2022-12-12T11:56:52.248Z,101100.09
2022-12-12T11:59:34.060Z,101107.19
2022-12-12T12:02:16.745Z,101095.19
2022-12-12T12:04:53.402Z,101096.09
2022-12-12T12:07:40.001Z,101095.25
2022-12-12T12:10:11.467Z,101090.81
2022-12-12T12:12:48.969Z,101078.50
2022-12-12T12:15:31.988Z,101082.81
2022-12-12T12:18:15.173Z,101085.41
2022-12-12T12:21:02.788Z,101087.09
2022-12-12T12:23:42.488Z,101078.22
2022-12-12T12:26:15.843Z,101078.91
2022-12-12T12:29:13.175Z,101076.09
2022-12-12T12:31:46.867Z,101077.59
2022-12-12T12:34:22.865Z,101076.50
2022-12-12T12:37:00.732Z,101077.28
2022-12-12T12:39:43.417Z,101078.03
2022-12-12T12:42:21.295Z,101073.56
2022-12-12T12:44:53.321Z,101071.84
2022-12-12T12:47:28.692Z,101071.84
2022-12-12T12:49:59.713Z,101082.28
2022-12-12T12:52:31.890Z,101077.97
2022-12-12T12:55:00.861Z,101080.66
2022-12-12T12:57:31.687Z,101084.03
2022-12-12T13:00:05.803Z,101077.84
2022-12-12T13:02:42.381Z,101080.34
2022-12-12T13:05:14.937Z,101079.38
2022-12-12T13:07:47.527Z,101066.50
2022-12-12T13:10:19.751Z,101069.81
2022-12-12T13:12:51.815Z,101070.66
2022-12-12T13:15:24.560Z,101067.97
2022-12-12T13:17:57.578Z,101060.13
2022-12-12T13:20:26.464Z,101067.75
2022-12-12T13:23:07.284Z,101066.72
2022-12-12T13:25:40.137Z,101067.56
2022-12-12T13:28:13.720Z,101065.63
2022-12-12T13:30:53.611Z,101066.47
2022-12-12T13:33:36.547Z,101063.84
2022-12-12T13:36:11.556Z,101058.66
2022-12-12T13:38:39.987Z,101071.75
2022-12-12T13:41:09.013Z,101065.81
2022-12-12T13:43:47.936Z,101078.06
2022-12-12T13:46:40.212Z,101085.28
2022-12-12T13:49:28.904Z,101082.03
2022-12-12T13:52:24.789Z,101080.44
2022-12-12T13:54:54.750Z,101083.81
2022-12-12T13:57:32.010Z,101076.63
2022-12-12T14:00:24.080Z,101074.13
2022-12-12T14:03:05.858Z,101075.03
2022-12-12T14:05:36.343Z,101061.25
2022-12-12T14:08:08.655Z,101065.53
2022-12-12T14:10:38.329Z,101073.47
2022-12-12T14:13:27.672Z,101067.53
2022-12-12T14:16:05.310Z,101070.19
2022-12-12T14:18:36.993Z,101071.19
2022-12-12T14:21:06.392Z,101072.22
2022-12-12T14:23:36.162Z,101069.63
2022-12-12T14:26:53.901Z,101078.44
2022-12-12T14:29:28.490Z,101090.81
2022-12-12T14:32:14.840Z,101087.38
2022-12-12T14:34:47.695Z,101091.88
2022-12-12T14:37:29.835Z,101097.13
2022-12-12T14:40:01.149Z,101092.13
2022-12-12T14:43:20.976Z,101112.84
2022-12-12T14:45:32.548Z,101103.44
2022-12-12T14:48:21.036Z,101110.44
2022-12-12T14:50:55.016Z,101105.47
2022-12-12T14:53:24.516Z,101103.81
2022-12-12T14:55:54.604Z,101107.25
2022-12-12T14:58:26.380Z,101107.31
2022-12-12T15:00:58.249Z,101102.19
2022-12-12T15:03:28.680Z,101097.09
2022-12-12T15:06:36.371Z,101101.47
2022-12-12T15:09:24.601Z,101102.50
2022-12-12T15:11:53.645Z,101092.19
2022-12-12T15:14:23.422Z,101089.66
2022-12-12T15:16:59.997Z,101093.22
2022-12-12T15:19:30.259Z,101073.72
2022-12-12T15:21:58.412Z,101090.09
2022-12-12T15:24:28.722Z,101091.94
2022-12-12T15:26:58.187Z,101101.63
2022-12-12T15:29:28.148Z,101099.22
2022-12-12T15:32:01.067Z,101117.47
2022-12-12T15:34:37.525Z,101122.75
2022-12-12T15:37:20.528Z,101128.66
2022-12-12T15:39:58.701Z,101122.41
2022-12-12T15:42:26.536Z,101120.75
2022-12-12T15:44:54.579Z,101121.66
2022-12-12T15:47:23.788Z,101122.59
2022-12-12T15:49:53.329Z,101129.53
2022-12-12T15:52:23.264Z,101124.44
2022-12-12T15:54:52.905Z,101125.34
2022-12-12T15:57:22.035Z,101123.75
2022-12-12T15:59:55.539Z,101129.78
2022-12-12T16:02:26.590Z,101122.16
2022-12-12T16:04:56.119Z,101117.88
2022-12-12T16:07:24.476Z,101116.25
2022-12-12T16:10:00.394Z,101127.44
2022-12-12T16:12:56.951Z,101132.72
2022-12-12T16:15:31.541Z,101137.13
2022-12-12T16:18:06.870Z,101138.91
2022-12-12T16:20:35.311Z,101144.25
2022-12-12T16:23:20.186Z,101144.25
2022-12-12T16:25:47.914Z,101140.09
2022-12-12T16:28:25.365Z,101142.69
2022-12-12T16:30:58.741Z,101150.53
2022-12-12T16:33:31.232Z,101161.06
2022-12-12T16:36:01.520Z,101151.50
2022-12-12T16:38:29.823Z,101149.81
2022-12-12T16:40:59.833Z,101131.88
2022-12-12T16:43:27.925Z,101139.53
2022-12-12T16:45:57.518Z,101142.19
2022-12-12T16:48:27.048Z,101136.22
2022-12-12T16:50:58.334Z,101138.88
2022-12-12T16:53:27.121Z,101131.19
2022-12-12T16:55:55.126Z,101131.19
2022-12-12T16:58:22.947Z,101127.75
2022-12-12T17:00:52.792Z,101125.25
2022-12-12T17:03:21.308Z,101125.16
2022-12-12T17:05:49.536Z,101130.34
2022-12-12T17:08:19.094Z,101132.94
2022-12-12T17:10:48.880Z,101136.56
2022-12-12T17:13:18.540Z,101133.16
2022-12-12T17:15:46.477Z,101136.72
2022-12-12T17:18:14.728Z,101135.94
2022-12-12T17:20:43.017Z,101137.75
2022-12-12T17:23:29.925Z,101130.81
2022-12-12T17:26:04.099Z,101137.91
2022-12-12T17:28:33.250Z,101134.47
2022-12-12T17:31:01.069Z,101139.72
2022-12-12T17:33:29.004Z,101129.50
2022-12-12T17:36:01.066Z,101135.47
2022-12-12T17:38:30.263Z,101120.97
2022-12-12T17:40:59.996Z,101129.50
2022-12-12T17:43:27.777Z,101137.44
2022-12-12T17:45:59.831Z,101143.44
2022-12-12T17:48:29.321Z,101150.41
2022-12-12T17:50:59.158Z,101148.72
2022-12-12T17:53:26.985Z,101145.28
2022-12-12T17:56:01.770Z,101148.78
2022-12-12T17:58:38.593Z,101140.19
2022-12-12T18:01:12.902Z,101146.19
2022-12-12T18:03:40.729Z,101137.78
2022-12-12T18:06:09.067Z,101143.69
2022-12-12T18:08:36.880Z,101140.31
2022-12-12T18:11:07.625Z,101135.09
2022-12-12T18:13:38.736Z,101144.91
2022-12-12T18:16:07.732Z,101136.91
2022-12-12T18:18:35.576Z,101126.69
2022-12-12T18:21:04.835Z,101130.09
2022-12-12T18:23:32.645Z,101133.53
2022-12-12T18:26:04.819Z,101133.53
2022-12-12T18:28:32.612Z,101135.34
2022-12-12T18:31:01.783Z,101135.34
2022-12-12T18:33:29.517Z,101114.00
2022-12-12T18:36:02.665Z,101132.03
2022-12-12T18:38:30.774Z,101129.50
2022-12-12T18:40:58.476Z,101126.13
2022-12-12T18:43:27.765Z,101119.22
2022-12-12T18:45:55.991Z,101124.53
2022-12-12T18:48:25.153Z,101118.50
2022-12-12T18:50:52.885Z,101119.44
2022-12-12T18:53:20.828Z,101118.56
2022-12-12T18:55:48.595Z,101122.88
2022-12-12T18:58:16.261Z,101119.41
2022-12-12T19:00:43.895Z,101119.44
2022-12-12T19:03:11.553Z,101117.69
2022-12-12T19:05:43.540Z,101118.56
2022-12-12T19:08:11.986Z,101116.00
2022-12-12T19:10:40.830Z,101117.78
2022-12-12T19:13:08.765Z,101109.16
2022-12-12T19:15:36.553Z,101107.44
2022-12-12T19:18:04.395Z,101111.81
2022-12-12T19:20:32.102Z,101110.19
2022-12-12T19:23:01.229Z,101111.78
2022-12-12T19:25:28.980Z,101117.06
2022-12-12T19:28:32.989Z,101124.94
2022-12-12T19:36:16.392Z,101136.34
2022-12-12T19:39:32.463Z,101132.16
2022-12-12T19:45:04.604Z,101124.50
2022-12-12T19:47:35.925Z,101099.72
2022-12-12T19:50:03.794Z,101132.22
2022-12-12T19:52:31.686Z,101129.66
2022-12-12T19:54:59.975Z,101111.78
2022-12-12T19:57:29.776Z,101116.91
2022-12-12T19:59:57.947Z,101123.91
2022-12-12T20:02:26.067Z,101127.28
2022-12-12T20:04:57.200Z,101111.03
2022-12-12T20:07:25.432Z,101132.47
2022-12-12T20:09:56.178Z,101137.66
